Time;durP1;ratioP1;P1;durP2;ratioP2;P2;SDS_P1;SDS_P2;PMS_P1;PMS_P2;Temp;Humidity;BMP_temperature;BMP_pressure;BME280_temperature;BME280_humidity;BME280_pressure;Samples;Min_cycle;Max_cycle;Signal;HPM_P1;HPM_P2
2022/09/17 00:02:35;;;;;;;4.10;0.90;;;11.70;99.90;;;;;;4855025;29;20076;-88
2022/09/17 00:05:06;;;;;;;6.60;1.75;;;11.20;99.90;;;;;;4837629;29;20137;-88
2022/09/17 00:07:41;;;;;;;8.25;1.20;;;11.10;99.90;;;;;;4826397;29;20038;-85
2022/09/17 00:10:08;;;;;;;5.63;1.48;;;11.10;99.90;;;;;;4841568;29;20050;-85
2022/09/17 00:12:40;;;;;;;11.52;0.90;;;11.10;99.90;;;;;;4811436;29;20051;-85
2022/09/17 00:15:06;;;;;;;3.95;0.77;;;11.10;99.90;;;;;;4830920;29;20159;-85
2022/09/17 00:17:41;;;;;;;4.53;1.05;;;11.00;99.90;;;;;;4848765;29;20054;-85
2022/09/17 00:20:17;;;;;;;2.60;0.80;;;11.10;99.90;;;;;;4828874;29;20046;-85
2022/09/17 00:22:46;;;;;;;4.35;0.73;;;11.10;99.90;;;;;;4825423;29;20125;-85
2022/09/17 00:25:12;;;;;;;4.22;0.80;;;11.00;99.90;;;;;;4863308;29;20037;-87
2022/09/17 00:27:38;;;;;;;6.07;0.95;;;11.00;99.90;;;;;;4855878;29;20037;-87
2022/09/17 00:30:04;;;;;;;5.63;0.85;;;10.90;99.90;;;;;;4851616;29;20049;-87
2022/09/17 00:32:30;;;;;;;6.00;0.95;;;10.80;99.90;;;;;;4847414;29;20048;-87
2022/09/17 00:35:07;;;;;;;11.25;1.45;;;10.80;99.90;;;;;;4856941;29;20137;-87
2022/09/17 00:37:41;;;;;;;9.15;1.30;;;10.70;99.90;;;;;;4831076;29;20050;-87
2022/09/17 00:40:15;;;;;;;5.80;1.48;;;10.60;99.90;;;;;;4830153;29;20137;-87
2022/09/17 00:42:44;;;;;;;5.78;1.88;;;10.60;99.90;;;;;;4828799;29;20045;-87
2022/09/17 00:45:44;;;;;;;4.10;1.13;;;10.50;99.90;;;;;;4859252;29;20067;-88
2022/09/17 00:48:21;;;;;;;4.63;0.80;;;10.40;99.90;;;;;;4858932;29;20060;-88
2022/09/17 00:50:52;;;;;;;5.00;0.90;;;10.60;99.90;;;;;;4851891;29;20072;-87
2022/09/17 00:53:21;;;;;;;5.85;1.17;;;10.70;99.90;;;;;;4833399;29;20052;-87
2022/09/17 00:56:12;;;;;;;4.38;0.93;;;11.00;99.90;;;;;;4862407;29;20057;-87
2022/09/17 00:58:45;;;;;;;4.20;0.90;;;11.40;99.90;;;;;;4834386;29;20110;-85
2022/09/17 01:01:10;;;;;;;5.55;0.82;;;11.00;99.90;;;;;;4830576;29;20060;-86
2022/09/17 01:03:36;;;;;;;2.95;0.88;;;11.10;99.90;;;;;;4846924;29;20049;-85
2022/09/17 01:06:25;;;;;;;7.65;1.10;;;11.60;99.90;;;;;;4847082;29;20041;-86
2022/09/17 01:09:02;;;;;;;1.60;0.40;;;11.10;99.90;;;;;;4846414;29;20493;-86
2022/09/17 01:11:43;;;;;;;2.38;0.63;;;11.00;99.90;;;;;;4861553;29;20068;-86
2022/09/17 01:14:27;;;;;;;3.25;0.70;;;11.00;99.90;;;;;;4846819;29;20110;-86
2022/09/17 01:17:13;;;;;;;7.32;1.23;;;11.00;99.90;;;;;;4835820;29;20049;-87
2022/09/17 01:20:07;;;;;;;2.85;0.85;;;11.00;99.90;;;;;;4847686;29;20565;-87
2022/09/17 01:22:45;;;;;;;8.45;1.58;;;10.90;99.90;;;;;;4849400;29;20046;-86
2022/09/17 01:25:43;;;;;;;6.93;1.60;;;11.80;99.90;;;;;;4828778;29;20045;-87
2022/09/17 01:28:34;;;;;;;7.82;1.13;;;10.90;99.90;;;;;;4834578;29;20057;-87
2022/09/17 01:31:33;;;;;;;12.45;1.95;;;10.90;99.90;;;;;;4861740;29;20041;-86
2022/09/17 01:34:21;;;;;;;4.28;0.73;;;10.90;99.90;;;;;;4836435;29;20042;-87
2022/09/17 01:37:09;;;;;;;7.53;1.88;;;11.00;99.90;;;;;;4854854;29;20497;-86
2022/09/17 01:40:31;;;;;;;8.98;1.27;;;10.40;99.90;;;;;;4847075;29;20053;-86
2022/09/17 01:43:21;;;;;;;5.60;1.00;;;10.90;99.90;;;;;;4817252;29;20409;-86
2022/09/17 01:46:11;;;;;;;4.78;1.08;;;10.90;99.90;;;;;;4853151;29;20124;-86
2022/09/17 01:48:43;;;;;;;4.63;1.33;;;11.20;99.90;;;;;;4875432;29;20057;-86
2022/09/17 01:51:48;;;;;;;11.55;1.10;;;10.90;99.90;;;;;;4864714;29;20105;-87
2022/09/17 01:54:28;;;;;;;9.13;1.55;;;10.80;99.90;;;;;;4841796;29;20554;-86
2022/09/17 01:57:17;;;;;;;7.93;1.90;;;10.90;99.90;;;;;;4828997;29;20046;-86
2022/09/17 02:00:18;;;;;;;6.43;1.40;;;10.90;99.90;;;;;;4843043;29;20493;-86
2022/09/17 02:03:45;;;;;;;4.10;0.95;;;10.60;99.90;;;;;;4816988;29;20049;-87
2022/09/17 02:13:26;;;;;;;5.93;0.80;;;10.30;99.90;;;;;;4792179;29;20120;-87
2022/09/17 02:16:04;;;;;;;2.95;0.85;;;10.70;99.90;;;;;;4861337;29;20449;-87
2022/09/17 02:18:40;;;;;;;5.35;0.98;;;10.60;99.90;;;;;;4851825;29;20083;-87
2022/09/17 02:22:12;;;;;;;8.40;0.73;;;10.80;99.90;;;;;;4861274;29;20439;-86
2022/09/17 02:32:18;;;;;;;9.18;0.82;;;10.20;99.90;;;;;;4743241;30;20106;-86
2022/09/17 02:34:44;;;;;;;3.42;0.63;;;10.10;99.90;;;;;;4766563;30;20048;-86
2022/09/17 02:37:10;;;;;;;7.03;1.35;;;9.90;99.90;;;;;;4765643;30;20577;-86
2022/09/17 02:39:37;;;;;;;3.50;1.15;;;9.90;99.90;;;;;;4818080;29;20046;-86
2022/09/17 02:42:16;;;;;;;6.07;0.80;;;9.80;99.90;;;;;;4814451;29;20074;-86
2022/09/17 02:45:29;;;;;;;11.73;1.77;;;9.60;99.90;;;;;;4824540;29;20048;-86
2022/09/17 02:48:03;;;;;;;6.00;1.00;;;9.60;99.90;;;;;;4754147;30;20070;-86
2022/09/17 02:50:41;;;;;;;6.00;1.08;;;9.60;99.90;;;;;;4811922;29;20054;-86
2022/09/17 02:53:38;;;;;;;4.68;1.13;;;9.70;99.90;;;;;;4829575;29;20049;-87
2022/09/17 02:56:58;;;;;;;;;;;;;;;;;;;;;
2022/09/17 02:59:50;;;;;;;4.47;0.52;;;9.60;99.90;;;;;;4860003;29;20057;-88
2022/09/17 03:17:03;;;;;;;11.23;1.60;;;10.10;99.90;;;;;;4808477;29;20103;-88
2022/09/17 03:19:28;;;;;;;4.88;0.82;;;9.90;99.90;;;;;;4805939;29;20050;-88
2022/09/17 03:21:54;;;;;;;7.50;1.10;;;10.70;99.90;;;;;;4841772;29;20133;-88
2022/09/17 03:24:20;;;;;;;2.28;0.63;;;10.00;99.90;;;;;;4825155;29;20046;-88
2022/09/17 03:26:49;;;;;;;2.75;0.70;;;10.00;99.90;;;;;;4807980;24;20409;-88
2022/09/17 03:29:15;;;;;;;3.83;0.73;;;10.00;99.90;;;;;;4826661;29;22091;-86
2022/09/17 03:31:41;;;;;;;2.90;0.70;;;10.10;99.90;;;;;;4841362;29;20129;-85
2022/09/17 03:34:07;;;;;;;3.05;0.57;;;10.20;99.90;;;;;;4826538;29;20081;-86
2022/09/17 03:36:33;;;;;;;6.90;0.80;;;10.20;99.90;;;;;;4825778;29;20070;-86
2022/09/17 03:38:59;;;;;;;6.05;0.80;;;10.30;99.90;;;;;;4841784;29;20042;-86
2022/09/17 03:41:25;;;;;;;6.28;0.85;;;10.30;99.90;;;;;;4838733;29;20038;-85
2022/09/17 03:43:56;;;;;;;5.72;0.85;;;10.20;99.90;;;;;;4826756;29;20046;-88
2022/09/17 03:46:22;;;;;;;5.78;0.95;;;10.90;99.90;;;;;;4841334;29;20042;-88
2022/09/17 03:48:48;;;;;;;4.18;0.98;;;10.20;99.90;;;;;;4841058;29;20106;-88
2022/09/17 03:51:14;;;;;;;4.32;0.93;;;9.90;99.90;;;;;;4811448;29;20048;-87
2022/09/17 03:53:39;;;;;;;2.00;0.77;;;10.30;99.90;;;;;;4823104;29;20126;-88
2022/09/17 03:56:06;;;;;;;4.38;0.70;;;10.20;99.90;;;;;;4822714;29;20125;-88
2022/09/17 03:58:32;;;;;;;5.53;0.63;;;10.90;99.90;;;;;;4825980;29;20148;-88
2022/09/17 04:00:58;;;;;;;5.32;2.28;;;10.10;99.90;;;;;;4841167;29;20519;-87
2022/09/17 04:03:24;;;;;;;3.75;0.75;;;10.50;99.90;;;;;;4825786;29;20042;-87
2022/09/17 04:05:50;;;;;;;4.38;0.82;;;10.10;99.90;;;;;;4826096;29;20524;-87
2022/09/17 04:08:16;;;;;;;2.70;0.68;;;10.20;99.90;;;;;;4840804;29;20042;-87
2022/09/17 04:10:43;;;;;;;5.65;0.82;;;10.30;99.90;;;;;;4826067;29;20401;-87
2022/09/17 04:13:09;;;;;;;3.72;0.88;;;10.30;99.90;;;;;;4825392;29;20042;-87
2022/09/17 04:15:35;;;;;;;3.42;0.70;;;10.40;99.90;;;;;;4841313;29;20050;-87
2022/09/17 04:21:37;;;;;;;5.25;0.85;;;9.80;99.90;;;;;;4838081;29;20050;-88
2022/09/17 04:24:03;;;;;;;5.80;0.88;;;10.40;99.90;;;;;;4808350;29;20046;-88
2022/09/17 04:26:29;;;;;;;1.88;0.98;;;10.30;99.90;;;;;;4811323;29;20133;-87
2022/09/17 04:28:55;;;;;;;2.70;0.57;;;10.40;99.90;;;;;;4822999;29;20447;-88
2022/09/17 04:31:23;;;;;;;5.72;1.02;;;10.40;99.90;;;;;;4844678;29;20108;-87
2022/09/17 04:34:37;;;;;;;;;;;;;;;;;;;;;
2022/09/17 04:37:22;;;;;;;7.97;0.73;;;10.40;99.90;;;;;;4834307;29;20044;-87
2022/09/17 04:39:48;;;;;;;8.63;0.80;;;10.60;99.90;;;;;;4828680;29;20045;-87
2022/09/17 04:42:15;;;;;;;3.78;0.98;;;10.20;99.90;;;;;;4844496;29;20056;-87
2022/09/17 04:44:40;;;;;;;4.95;1.25;;;10.10;99.90;;;;;;4835626;29;20041;-87
2022/09/17 04:47:06;;;;;;;6.50;1.35;;;10.10;99.90;;;;;;4813814;29;20507;-87
2022/09/17 04:49:32;;;;;;;4.32;0.47;;;10.10;99.90;;;;;;4813660;29;20054;-87
2022/09/17 04:51:57;;;;;;;3.40;0.77;;;10.10;99.90;;;;;;4829268;29;20041;-85
2022/09/17 04:54:23;;;;;;;2.38;0.60;;;10.10;99.90;;;;;;4828346;29;20046;-85
2022/09/17 04:56:49;;;;;;;4.63;0.68;;;10.10;99.90;;;;;;4813245;29;20046;-86
2022/09/17 04:59:15;;;;;;;7.60;0.90;;;10.70;99.90;;;;;;4843562;29;20041;-86
2022/09/17 05:01:42;;;;;;;8.13;0.95;;;10.20;99.90;;;;;;4849069;29;20070;-85
2022/09/17 05:04:08;;;;;;;2.53;0.80;;;;;;;;;;4824102;29;20378;-85
2022/09/17 05:06:34;;;;;;;3.38;0.80;;;10.10;99.90;;;;;;4843162;29;20044;-86
2022/09/17 05:09:58;;;;;;;2.65;0.77;;;10.20;99.90;;;;;;4845082;29;20168;-86
2022/09/17 05:12:34;;;;;;;2.53;0.70;;;10.10;99.90;;;;;;4825866;29;20049;-86
2022/09/17 05:14:59;;;;;;;3.50;0.70;;;9.90;99.90;;;;;;4826275;29;20046;-86
2022/09/17 05:17:25;;;;;;;0.68;0.32;;;9.90;99.90;;;;;;4843615;29;20516;-86
2022/09/17 05:19:52;;;;;;;3.40;0.90;;;9.80;99.90;;;;;;4844336;29;20382;-86
2022/09/17 05:22:24;;;;;;;3.42;0.60;;;10.50;99.90;;;;;;4816082;29;20045;-86
2022/09/17 05:24:49;;;;;;;1.13;0.32;;;9.60;99.90;;;;;;4812430;29;20042;-87
2022/09/17 05:27:15;;;;;;;8.07;1.00;;;9.60;99.90;;;;;;4834623;29;20064;-87
2022/09/17 05:29:53;;;;;;;3.72;0.60;;;9.50;99.90;;;;;;4804371;29;20128;-88
2022/09/17 05:32:22;;;;;;;3.83;0.73;;;9.80;99.90;;;;;;4825202;29;20061;-87
2022/09/17 05:34:49;;;;;;;6.45;0.88;;;9.60;99.90;;;;;;4824166;29;20050;-87
2022/09/17 05:37:14;;;;;;;1.50;0.30;;;9.60;99.90;;;;;;4830764;29;20573;-87
2022/09/17 05:39:40;;;;;;;3.78;1.00;;;9.70;99.90;;;;;;4800313;29;20053;-87
2022/09/17 05:42:06;;;;;;;6.03;1.25;;;9.80;99.90;;;;;;4835578;29;20041;-91
2022/09/17 05:44:38;;;;;;;0.93;0.63;;;9.90;99.90;;;;;;4814972;29;20048;-87
2022/09/17 05:47:07;;;;;;;2.25;0.55;;;9.50;99.90;;;;;;4845899;29;20120;-87
2022/09/17 05:49:32;;;;;;;0.60;0.20;;;10.10;99.90;;;;;;4815879;29;20049;-87
2022/09/17 05:51:58;;;;;;;0.10;0.10;;;10.00;99.90;;;;;;4830395;29;20606;-88
2022/09/17 05:54:27;;;;;;;2.78;0.40;;;10.00;99.90;;;;;;4815487;29;20185;-87
2022/09/17 05:56:53;;;;;;;1.42;0.28;;;9.90;99.90;;;;;;4831125;29;20053;-87
2022/09/17 05:59:19;;;;;;;6.07;0.82;;;10.40;99.90;;;;;;4830881;29;20049;-85
2022/09/17 06:01:45;;;;;;;2.70;0.52;;;10.00;99.90;;;;;;4830927;29;20070;-85
2022/09/17 06:04:11;;;;;;;3.97;0.70;;;10.10;99.90;;;;;;4830384;29;20065;-85
2022/09/17 06:07:19;;;;;;;8.32;0.88;;;10.60;99.90;;;;;;4830543;29;20037;-85
2022/09/17 06:09:47;;;;;;;4.70;1.13;;;10.50;99.90;;;;;;4845326;29;20093;-85
2022/09/17 06:12:13;;;;;;;8.32;1.17;;;10.50;99.90;;;;;;4830530;29;20128;-85
2022/09/17 06:14:39;;;;;;;4.13;0.57;;;10.60;99.90;;;;;;4829759;29;20605;-87
2022/09/17 06:17:04;;;;;;;0.63;0.20;;;10.70;99.90;;;;;;4815447;29;20048;-87
2022/09/17 06:19:30;;;;;;;2.15;0.47;;;10.60;99.90;;;;;;4853845;29;20049;-86
2022/09/17 06:21:56;;;;;;;2.97;0.38;;;10.70;99.90;;;;;;4829613;29;20124;-87
2022/09/17 06:24:22;;;;;;;1.00;0.32;;;10.60;99.90;;;;;;4827706;29;20045;-87
2022/09/17 06:26:47;;;;;;;1.77;0.43;;;10.60;99.90;;;;;;4830315;29;20053;-87
2022/09/17 06:29:14;;;;;;;2.63;0.50;;;10.70;99.90;;;;;;4815226;29;20102;-87
2022/09/17 06:31:43;;;;;;;2.53;0.45;;;10.50;99.90;;;;;;4814505;29;20064;-86
2022/09/17 06:34:09;;;;;;;2.35;0.38;;;10.90;99.90;;;;;;4830632;29;20124;-85
2022/09/17 06:36:34;;;;;;;5.80;1.65;;;12.40;99.90;;;;;;4829997;29;20132;-85
2022/09/17 06:39:00;;;;;;;5.82;1.65;;;14.00;99.90;;;;;;4845440;29;20085;-85
2022/09/17 06:41:26;;;;;;;6.78;1.58;;;14.60;99.90;;;;;;4845234;29;20037;-85
2022/09/17 06:43:54;;;;;;;4.95;0.85;;;14.40;99.90;;;;;;4839622;29;20045;-85
2022/09/17 06:46:20;;;;;;;1.42;0.57;;;14.00;99.90;;;;;;4841702;29;20098;-85
2022/09/17 06:48:46;;;;;;;5.57;0.80;;;13.50;99.90;;;;;;4824078;29;20034;-82
2022/09/17 06:51:12;;;;;;;2.10;0.70;;;13.40;99.90;;;;;;4839223;29;20053;-82
2022/09/17 06:53:38;;;;;;;4.03;0.38;;;14.00;99.90;;;;;;4813629;29;20137;-81
2022/09/17 06:56:05;;;;;;;3.15;0.65;;;15.40;99.90;;;;;;4830327;29;20045;-82
2022/09/17 06:58:31;;;;;;;4.10;0.77;;;17.00;99.90;;;;;;4825608;29;20408;-82
2022/09/17 07:00:59;;;;;;;2.00;0.43;;;18.60;99.90;;;;;;4845005;29;20053;-82
2022/09/17 07:03:25;;;;;;;6.25;1.02;;;19.90;99.90;;;;;;4831035;29;20126;-82
2022/09/17 07:05:50;;;;;;;3.65;0.75;;;20.70;97.10;;;;;;4845186;29;20037;-82
2022/09/17 07:08:16;;;;;;;3.85;0.43;;;19.70;95.30;;;;;;4830257;29;20115;-82
2022/09/17 07:10:42;;;;;;;1.90;0.60;;;18.40;96.10;;;;;;4815011;29;20053;-82
2022/09/17 07:13:08;;;;;;;2.13;0.55;;;17.10;97.90;;;;;;4845422;29;20078;-82
2022/09/17 07:15:34;;;;;;;2.28;0.63;;;16.00;99.90;;;;;;4862734;29;20041;-82
2022/09/17 07:18:06;;;;;;;2.72;0.45;;;16.50;99.90;;;;;;4829263;29;20038;-82
2022/09/17 07:20:31;;;;;;;2.05;0.50;;;17.60;99.90;;;;;;4842261;29;20125;-84
2022/09/17 07:22:57;;;;;;;1.85;0.45;;;19.10;99.90;;;;;;4833524;29;20488;-84
2022/09/17 07:25:25;;;;;;;2.60;0.55;;;20.40;97.60;;;;;;4844723;29;20391;-84
2022/09/17 07:27:52;;;;;;;0.88;0.50;;;21.30;95.00;;;;;;4829192;29;20060;-84
2022/09/17 07:30:18;;;;;;;3.00;0.50;;;21.70;93.90;;;;;;4836062;29;20053;-84
2022/09/17 07:32:44;;;;;;;0.85;0.28;;;20.70;93.20;;;;;;4811614;29;20454;-84
2022/09/17 07:35:10;;;;;;;1.90;0.65;;;19.60;93.50;;;;;;4825710;29;20053;-84
2022/09/17 07:37:36;;;;;;;4.20;0.75;;;18.00;95.10;;;;;;4844021;29;20510;-81
2022/09/17 07:40:05;;;;;;;0.77;0.60;;;16.50;97.50;;;;;;4851682;29;20045;-81
2022/09/17 07:42:31;;;;;;;2.53;0.68;;;15.60;99.90;;;;;;4839351;29;20077;-81
2022/09/17 07:44:57;;;;;;;1.42;0.52;;;14.90;99.90;;;;;;4828036;29;20117;-81
2022/09/17 07:47:22;;;;;;;4.68;0.65;;;14.60;99.90;;;;;;4845108;29;20133;-81
2022/09/17 07:49:48;;;;;;;2.60;0.77;;;14.50;99.90;;;;;;4828626;29;20045;-81
2022/09/17 07:52:14;;;;;;;3.17;0.45;;;14.40;99.90;;;;;;4811660;29;20045;-81
2022/09/17 07:54:39;;;;;;;1.63;0.73;;;14.40;99.90;;;;;;4808980;29;20077;-84
2022/09/17 07:57:05;;;;;;;4.13;0.77;;;14.40;99.90;;;;;;4828969;29;20052;-84
2022/09/17 07:59:31;;;;;;;2.25;0.50;;;14.20;99.90;;;;;;4848069;29;20045;-84
2022/09/17 08:01:56;;;;;;;3.03;0.50;;;14.00;99.90;;;;;;4840358;29;20048;-84
2022/09/17 08:04:22;;;;;;;1.70;0.55;;;14.70;99.90;;;;;;4832781;29;20045;-84
2022/09/17 08:06:48;;;;;;;0.75;0.40;;;15.00;99.90;;;;;;4847853;29;20037;-84
2022/09/17 08:09:15;;;;;;;2.63;0.28;;;16.30;99.90;;;;;;4847439;29;20057;-84
2022/09/17 08:11:42;;;;;;;1.50;0.50;;;18.00;99.90;;;;;;4837327;29;20498;-85
2022/09/17 08:14:13;;;;;;;3.55;0.35;;;19.70;98.40;;;;;;4847637;29;20404;-84
2022/09/17 08:16:39;;;;;;;1.83;0.50;;;21.10;95.90;;;;;;4842267;29;20136;-85
2022/09/17 08:19:05;;;;;;;2.00;0.43;;;21.20;93.70;;;;;;4844059;29;20074;-84
2022/09/17 08:21:31;;;;;;;0.20;0.20;;;20.50;93.90;;;;;;4846371;29;20495;-82
2022/09/17 08:23:57;;;;;;;1.55;0.70;;;19.00;95.30;;;;;;4846682;29;20041;-83
2022/09/17 08:26:24;;;;;;;4.15;0.45;;;17.40;98.40;;;;;;4847356;29;20054;-83
2022/09/17 08:28:55;;;;;;;2.72;0.57;;;16.20;99.90;;;;;;4827769;29;20041;-83
2022/09/17 08:31:22;;;;;;;2.47;0.65;;;15.20;99.90;;;;;;4837630;29;20057;-83
2022/09/17 08:33:50;;;;;;;2.58;0.68;;;14.60;99.90;;;;;;4827483;29;20052;-83
2022/09/17 08:36:18;;;;;;;3.35;0.50;;;14.30;99.90;;;;;;4820436;29;20042;-83
2022/09/17 08:38:44;;;;;;;0.47;0.43;;;14.10;99.90;;;;;;4831757;29;20068;-84
2022/09/17 08:41:11;;;;;;;1.20;0.10;;;14.60;99.90;;;;;;4846845;29;20045;-83
2022/09/17 08:43:42;;;;;;;0.43;0.30;;;16.20;99.90;;;;;;4830796;29;20046;-83
2022/09/17 08:46:10;;;;;;;5.93;1.23;;;18.30;99.90;;;;;;4823684;29;20498;-83
2022/09/17 08:48:49;;;;;;;2.95;0.38;;;20.10;99.30;;;;;;4823989;29;20379;-82
2022/09/17 08:51:35;;;;;;;1.00;0.40;;;21.50;96.80;;;;;;4858260;29;20497;-82
2022/09/17 08:54:25;;;;;;;2.30;0.53;;;22.50;93.70;;;;;;4823469;29;20050;-82
2022/09/17 08:57:13;;;;;;;3.33;0.85;;;23.60;93.30;;;;;;4839414;29;20056;-82
2022/09/17 09:00:09;;;;;;;3.97;0.43;;;24.30;90.80;;;;;;4811493;29;20129;-81
2022/09/17 09:03:12;;;;;;;5.37;0.73;;;24.40;90.50;;;;;;4816651;29;20069;-82
2022/09/17 09:05:47;;;;;;;3.40;0.82;;;23.20;90.50;;;;;;4826356;29;20060;-82
2022/09/17 09:08:20;;;;;;;2.20;0.47;;;21.00;92.80;;;;;;4841588;29;20046;-82
2022/09/17 09:10:56;;;;;;;3.42;0.70;;;19.30;93.00;;;;;;4821625;29;20069;-82
2022/09/17 09:13:27;;;;;;;1.63;0.50;;;17.90;95.50;;;;;;4856412;29;20050;-82
2022/09/17 09:16:22;;;;;;;2.08;0.45;;;16.90;97.10;;;;;;4856707;29;20053;-82
2022/09/17 09:18:57;;;;;;;1.52;0.50;;;16.10;96.80;;;;;;4851409;29;20118;-84
2022/09/17 09:21:47;;;;;;;0.00;0.00;;;15.70;98.80;;;;;;4841598;29;20107;-83
2022/09/17 09:24:22;;;;;;;0.75;0.22;;;15.40;98.90;;;;;;4813462;29;20038;-83
2022/09/17 09:27:15;;;;;;;0.82;0.32;;;15.70;99.90;;;;;;4819155;29;20051;-83
2022/09/17 09:30:09;;;;;;;0.75;0.30;;;16.50;99.90;;;;;;4824026;29;20060;-83
2022/09/17 09:32:41;;;;;;;2.25;0.60;;;16.50;99.90;;;;;;4826805;29;20060;-83
2022/09/17 09:35:35;;;;;;;1.92;0.68;;;15.90;99.90;;;;;;4830403;29;20136;-84
2022/09/17 09:38:21;;;;;;;1.48;0.43;;;15.20;99.90;;;;;;4810465;29;20062;-84
2022/09/17 09:40:59;;;;;;;1.23;0.43;;;14.60;99.90;;;;;;4820101;29;20041;-84
2022/09/17 09:43:46;;;;;;;1.38;0.30;;;14.40;99.90;;;;;;4826648;29;20038;-84
2022/09/17 09:46:37;;;;;;;2.20;0.65;;;15.10;99.90;;;;;;4824711;29;20030;-84
2022/09/17 09:49:30;;;;;;;4.47;0.82;;;17.10;99.90;;;;;;4824788;29;20037;-84
2022/09/17 09:52:02;;;;;;;1.25;0.52;;;19.20;99.90;;;;;;4823600;29;20042;-82
2022/09/17 09:54:36;;;;;;;1.00;0.57;;;19.70;98.80;;;;;;4826099;29;20043;-82
2022/09/17 09:57:11;;;;;;;2.25;0.65;;;19.40;99.40;;;;;;4831557;29;20044;-81
2022/09/17 09:59:36;;;;;;;3.60;0.50;;;19.50;98.70;;;;;;4823008;29;20172;-82
2022/09/17 10:02:03;;;;;;;2.13;0.55;;;19.40;99.90;;;;;;4827091;29;20152;-82
2022/09/17 10:04:31;;;;;;;6.60;0.77;;;20.20;99.90;;;;;;4834444;29;20098;-82
2022/09/17 10:07:10;;;;;;;3.20;0.43;;;21.40;96.40;;;;;;4822473;29;20042;-82
2022/09/17 10:09:38;;;;;;;2.35;0.80;;;21.80;92.10;;;;;;4811782;29;20397;-82
2022/09/17 10:12:07;;;;;;;1.60;0.70;;;21.70;94.10;;;;;;4813443;29;20061;-82
2022/09/17 10:14:35;;;;;;;1.55;0.45;;;22.00;93.10;;;;;;4812205;29;20050;-83
2022/09/17 10:17:16;;;;;;;2.53;0.82;;;22.40;92.50;;;;;;4827063;29;20050;-83
2022/09/17 10:19:43;;;;;;;4.65;0.98;;;22.60;92.60;;;;;;4811211;29;20057;-82
2022/09/17 10:22:31;;;;;;;1.05;0.43;;;23.40;90.90;;;;;;4825421;29;20095;-82
2022/09/17 10:24:59;;;;;;;3.80;1.08;;;24.00;90.60;;;;;;4826748;29;20520;-82
2022/09/17 10:27:25;;;;;;;2.35;0.65;;;23.90;86.60;;;;;;4823753;29;20057;-82
2022/09/17 10:30:02;;;;;;;3.50;0.77;;;23.80;90.10;;;;;;4838670;29;20114;-82
2022/09/17 10:32:27;;;;;;;0.35;0.30;;;22.70;90.20;;;;;;4812615;29;20423;-82
2022/09/17 10:34:59;;;;;;;1.40;0.30;;;21.20;89.20;;;;;;4843671;29;20094;-82
2022/09/17 10:37:46;;;;;;;2.08;0.75;;;20.80;92.50;;;;;;4837210;29;20045;-82
2022/09/17 10:40:32;;;;;;;2.38;0.40;;;21.30;92.20;;;;;;4836797;29;20041;-82
2022/09/17 10:43:18;;;;;;;2.60;0.50;;;22.20;90.90;;;;;;4854763;29;20050;-84
2022/09/17 10:45:53;;;;;;;2.00;0.52;;;23.00;88.60;;;;;;4838953;29;20393;-85
2022/09/17 10:48:21;;;;;;;4.38;1.27;;;23.00;89.50;;;;;;4844951;29;20093;-85
2022/09/17 10:50:49;;;;;;;3.42;0.60;;;22.40;89.90;;;;;;4844772;29;20049;-85
2022/09/17 10:53:16;;;;;;;7.43;0.85;;;21.10;91.70;;;;;;4845074;29;20049;-85
2022/09/17 10:55:54;;;;;;;3.90;0.75;;;19.40;92.60;;;;;;4844574;29;20042;-84
2022/09/17 10:58:50;;;;;;;1.45;1.20;;;18.10;94.60;;;;;;4834595;29;20074;-82
2022/09/17 11:01:51;;;;;;;1.65;0.45;;;17.00;96.70;;;;;;4842784;29;20037;-83
2022/09/17 11:04:34;;;;;;;2.92;0.60;;;15.60;99.40;;;;;;4790420;29;20049;-85
2022/09/17 11:07:11;;;;;;;0.77;0.75;;;14.80;99.90;;;;;;4826465;29;20077;-86
2022/09/17 11:10:13;;;;;;;1.77;0.52;;;14.10;99.90;;;;;;4844869;29;21880;-86
2022/09/17 11:13:01;;;;;;;3.03;0.50;;;13.70;99.90;;;;;;4825933;29;20061;-86
2022/09/17 11:15:49;;;;;;;0.77;0.43;;;13.60;99.90;;;;;;4838246;29;20104;-84
2022/09/17 11:18:52;;;;;;;4.20;0.90;;;14.40;99.90;;;;;;4840785;29;20090;-84
2022/09/17 11:21:39;;;;;;;6.70;0.85;;;16.10;99.90;;;;;;4844750;29;20845;-84
2022/09/17 11:24:29;;;;;;;0.55;0.30;;;17.80;99.90;;;;;;4844701;29;20125;-83
2022/09/17 11:27:13;;;;;;;3.90;0.85;;;19.00;99.90;;;;;;4838965;29;20065;-84
2022/09/17 11:29:52;;;;;;;5.47;1.27;;;19.40;99.90;;;;;;4807868;29;20393;-84
2022/09/17 11:32:46;;;;;;;6.50;1.60;;;18.50;99.90;;;;;;4826855;29;20080;-83
2022/09/17 11:35:39;;;;;;;1.65;0.60;;;17.50;99.90;;;;;;4810957;29;20054;-83
2022/09/17 11:38:15;;;;;;;3.47;0.55;;;16.40;99.90;;;;;;4808593;29;20084;-84
2022/09/17 11:40:51;;;;;;;2.50;0.45;;;15.80;99.90;;;;;;4820882;29;20046;-83
2022/09/17 11:43:18;;;;;;;;;;;15.60;99.90;;;;;;4811901;29;20084;-83
2022/09/17 11:45:57;;;;;;;3.65;1.00;;;16.40;99.90;;;;;;4825433;29;19920;-83
2022/09/17 11:48:36;;;;;;;3.20;0.68;;;17.60;99.90;;;;;;4808551;29;20451;-84
2022/09/17 11:51:18;;;;;;;1.63;0.75;;;18.00;99.90;;;;;;4796513;29;20501;-84
2022/09/17 11:53:49;;;;;;;5.72;0.90;;;17.60;99.90;;;;;;4808171;29;20546;-84
2022/09/17 11:56:43;;;;;;;5.70;1.10;;;16.90;99.90;;;;;;4841063;29;20050;-83
2022/09/17 11:59:19;;;;;;;2.42;0.80;;;16.70;99.90;;;;;;4823275;29;20085;-84
2022/09/17 12:01:56;;;;;;;3.13;1.00;;;17.40;99.90;;;;;;4811176;29;20493;-84
2022/09/17 12:04:29;;;;;;;2.78;0.70;;;18.10;99.90;;;;;;4825736;29;20509;-82
2022/09/17 12:07:13;;;;;;;3.83;0.95;;;18.90;99.90;;;;;;4808344;29;20091;-82
2022/09/17 12:09:43;;;;;;;5.80;0.90;;;19.60;99.90;;;;;;4820038;29;20046;-82
2022/09/17 12:12:18;;;;;;;4.07;1.52;;;20.00;98.80;;;;;;4810000;29;20057;-82
2022/09/17 12:14:53;;;;;;;8.43;1.48;;;20.00;99.00;;;;;;4818528;29;20038;-82
2022/09/17 12:17:25;;;;;;;13.60;1.25;;;19.80;99.80;;;;;;4824896;29;20497;-82
2022/09/17 12:19:56;;;;;;;4.00;0.98;;;19.70;99.90;;;;;;4816329;29;20050;-82
2022/09/17 12:22:26;;;;;;;2.45;1.05;;;19.70;97.90;;;;;;4822284;29;20540;-84
2022/09/17 12:24:53;;;;;;;3.63;0.55;;;19.20;97.30;;;;;;4823141;29;20072;-83
2022/09/17 12:27:37;;;;;;;4.85;0.95;;;18.60;96.80;;;;;;4821620;29;20107;-83
2022/09/17 12:30:13;;;;;;;8.93;1.83;;;17.60;97.60;;;;;;4821762;29;20049;-83
2022/09/17 12:32:49;;;;;;;3.17;0.65;;;16.60;98.60;;;;;;4825044;29;20406;-83
2022/09/17 12:35:41;;;;;;;2.78;0.82;;;16.30;99.90;;;;;;4824436;29;20042;-83
2022/09/17 12:38:21;;;;;;;2.40;1.25;;;16.10;99.90;;;;;;4809958;29;20057;-82
2022/09/17 12:41:01;;;;;;;2.45;0.43;;;16.40;99.90;;;;;;4809253;29;20046;-82
2022/09/17 12:43:58;;;;;;;4.85;0.85;;;17.00;99.90;;;;;;4810126;29;20046;-82
2022/09/17 12:46:43;;;;;;;;;;;17.50;99.90;;;;;;4827552;29;20546;-82
2022/09/17 12:49:27;;;;;;;3.25;1.20;;;17.80;99.90;;;;;;4811825;29;20010;-82
2022/09/17 12:52:01;;;;;;;4.97;1.25;;;18.00;99.90;;;;;;4814776;29;20042;-83
2022/09/17 12:54:32;;;;;;;4.70;1.52;;;18.10;99.90;;;;;;4828824;29;20042;-84
2022/09/17 12:57:35;;;;;;;4.70;1.30;;;18.20;99.90;;;;;;4813061;29;20060;-84
2022/09/17 13:00:08;;;;;;;4.53;0.90;;;18.20;99.30;;;;;;4827831;29;20049;-84
2022/09/17 13:02:46;;;;;;;5.45;1.23;;;17.80;97.80;;;;;;4815670;29;20393;-84
2022/09/17 13:05:45;;;;;;;6.35;1.00;;;17.50;97.20;;;;;;4818851;29;20038;-84
2022/09/17 13:08:24;;;;;;;4.30;0.77;;;17.30;97.20;;;;;;4837529;29;20050;-84
2022/09/17 13:10:53;;;;;;;5.07;1.02;;;17.50;99.10;;;;;;4812542;29;20547;-83
2022/09/17 13:13:32;;;;;;;3.85;0.75;;;17.60;98.00;;;;;;4813007;29;20588;-83
2022/09/17 13:16:24;;;;;;;5.03;0.95;;;17.60;99.30;;;;;;4827589;29;20488;-83
2022/09/17 13:19:32;;;;;;;4.30;1.23;;;17.80;97.70;;;;;;4807446;29;20136;-83
2022/09/17 13:22:05;;;;;;;4.68;1.05;;;18.00;97.30;;;;;;4725738;30;20060;-83
2022/09/17 13:24:33;;;;;;;4.70;1.05;;;18.20;97.50;;;;;;4789847;29;20120;-83
2022/09/17 13:27:01;;;;;;;1.92;0.93;;;18.20;96.30;;;;;;4834954;29;20059;-83
2022/09/17 13:29:45;;;;;;;4.88;1.55;;;17.90;97.30;;;;;;4843651;29;20124;-83
2022/09/17 13:32:33;;;;;;;5.53;0.80;;;17.40;97.20;;;;;;4823389;29;20449;-84
2022/09/17 13:35:14;;;;;;;1.42;0.43;;;16.80;98.40;;;;;;4852134;29;20053;-83
2022/09/17 13:37:41;;;;;;;2.88;0.70;;;16.10;99.90;;;;;;4848915;29;20060;-83
2022/09/17 13:40:34;;;;;;;6.43;1.00;;;15.70;99.90;;;;;;4848518;29;20147;-83
2022/09/17 13:43:05;;;;;;;2.40;0.55;;;15.40;99.90;;;;;;4843971;29;20047;-83
2022/09/17 13:45:32;;;;;;;0.40;0.28;;;15.50;99.90;;;;;;4833759;29;20073;-83
2022/09/17 13:48:09;;;;;;;1.27;0.65;;;15.80;99.90;;;;;;4837872;29;20037;-83
2022/09/17 13:50:36;;;;;;;5.25;0.88;;;16.10;99.90;;;;;;4826802;29;20095;-83
2022/09/17 13:53:11;;;;;;;2.22;0.52;;;16.30;99.90;;;;;;4844649;29;20133;-83
2022/09/17 13:55:57;;;;;;;2.97;0.98;;;16.40;99.90;;;;;;4845814;29;20045;-83
2022/09/17 13:58:32;;;;;;;3.03;0.70;;;16.30;99.90;;;;;;4845675;29;20051;-85
2022/09/17 14:01:10;;;;;;;1.27;0.52;;;15.80;99.90;;;;;;4827777;29;20046;-85
2022/09/17 14:03:47;;;;;;;3.03;0.60;;;15.20;99.90;;;;;;4833762;29;20370;-84
2022/09/17 14:06:20;;;;;;;3.00;0.45;;;14.60;99.90;;;;;;4845487;29;20053;-84